createdAt,value
2022-11-05T00:00:36.991Z,17.15
2022-11-05T00:03:22.885Z,15.63
2022-11-05T00:06:11.558Z,16.75
2022-11-05T00:08:57.523Z,17.10
2022-11-05T00:11:44.011Z,16.48
2022-11-05T00:14:29.058Z,17.17
2022-11-05T00:16:55.526Z,19.17
2022-11-05T00:19:21.994Z,17.83
2022-11-05T00:22:07.135Z,17.55
2022-11-05T00:24:52.038Z,17.95
2022-11-05T00:27:18.555Z,17.92
2022-11-05T00:29:45.000Z,16.77
2022-11-05T00:32:11.462Z,14.70
2022-11-05T00:34:37.887Z,15.65
2022-11-05T00:37:04.401Z,16.45
2022-11-05T00:39:30.851Z,18.65
2022-11-05T00:42:15.796Z,14.47
2022-11-05T00:45:01.046Z,15.52
2022-11-05T00:47:46.749Z,19.73
2022-11-05T00:50:13.459Z,18.95
2022-11-05T00:52:56.209Z,17.00
2022-11-05T00:55:31.148Z,16.17
2022-11-05T00:57:57.694Z,16.00
2022-11-05T01:00:26.467Z,15.27
2022-11-05T01:02:53.534Z,14.82
2022-11-05T01:05:20.368Z,15.30
2022-11-05T01:07:47.782Z,15.20
2022-11-05T01:10:14.346Z,18.17
2022-11-05T01:12:40.835Z,17.17
2022-11-05T01:15:07.908Z,16.48
2022-11-05T01:17:34.369Z,14.48
2022-11-05T01:20:00.802Z,16.47
2022-11-05T01:22:27.351Z,16.50
2022-11-05T01:24:54.001Z,17.00
2022-11-05T01:27:20.414Z,16.05
2022-11-05T01:29:46.883Z,16.05
2022-11-05T01:32:13.806Z,16.57
2022-11-05T01:34:40.218Z,18.50
2022-11-05T01:37:06.632Z,19.75
2022-11-05T01:39:33.248Z,22.35
2022-11-05T01:42:00.973Z,19.33
2022-11-05T01:44:52.210Z,15.27
2022-11-05T01:47:34.656Z,20.13
2022-11-05T01:50:06.826Z,16.98
2022-11-05T01:52:34.958Z,16.33
2022-11-05T01:55:03.321Z,19.13
2022-11-05T01:57:31.678Z,17.87
2022-11-05T02:00:01.251Z,16.60
2022-11-05T02:02:29.086Z,15.40
2022-11-05T02:05:00.302Z,14.57
2022-11-05T02:07:28.359Z,16.85
2022-11-05T02:10:02.233Z,16.73
2022-11-05T02:12:29.633Z,15.25
2022-11-05T02:14:57.107Z,18.42
2022-11-05T02:17:33.869Z,18.02
2022-11-05T02:20:10.135Z,13.90
2022-11-05T02:22:48.679Z,18.00
2022-11-05T02:25:57.538Z,14.82
2022-11-05T02:28:46.551Z,13.70
2022-11-05T02:31:27.425Z,14.65
2022-11-05T02:34:06.010Z,16.05
2022-11-05T02:37:05.633Z,15.80
2022-11-05T02:39:46.998Z,15.52
2022-11-05T02:42:34.988Z,19.33
2022-11-05T02:45:32.352Z,16.40
2022-11-05T02:48:12.999Z,16.85
2022-11-05T02:51:03.411Z,20.30
2022-11-05T02:53:41.750Z,15.65
2022-11-05T02:56:16.701Z,18.23
2022-11-05T02:58:43.233Z,21.42
2022-11-05T03:01:12.480Z,19.65
2022-11-05T03:03:48.438Z,20.40
2022-11-05T03:06:33.608Z,16.88
2022-11-05T03:09:33.260Z,19.25
2022-11-05T03:12:23.752Z,17.85
2022-11-05T03:15:05.663Z,20.17
2022-11-05T03:17:37.811Z,21.47
2022-11-05T03:20:19.253Z,21.80
2022-11-05T03:23:02.819Z,16.88
2022-11-05T03:25:32.247Z,18.45
2022-11-05T03:28:05.353Z,21.80
2022-11-05T03:30:33.717Z,18.90
2022-11-05T03:33:05.636Z,20.85
2022-11-05T03:35:37.288Z,21.67
2022-11-05T03:38:13.363Z,20.27
2022-11-05T03:40:42.454Z,20.73
2022-11-05T03:43:09.818Z,19.33
2022-11-05T03:45:50.471Z,24.35
2022-11-05T03:48:19.238Z,20.67
2022-11-05T03:50:57.850Z,22.92
2022-11-05T03:53:30.590Z,20.40
2022-11-05T03:56:06.869Z,18.80
2022-11-05T03:58:35.180Z,19.00
2022-11-05T04:01:03.449Z,18.92
2022-11-05T04:03:36.170Z,18.58
2022-11-05T04:06:23.308Z,24.15
2022-11-05T04:09:08.144Z,19.67
2022-11-05T04:11:53.312Z,21.88
2022-11-05T04:14:19.882Z,20.02
2022-11-05T04:17:05.079Z,24.20
2022-11-05T04:19:50.920Z,20.98
2022-11-05T04:22:35.914Z,22.20
2022-11-05T04:25:02.421Z,28.35
2022-11-05T04:27:28.886Z,26.63
2022-11-05T04:30:13.940Z,26.80
2022-11-05T04:32:40.454Z,21.48
2022-11-05T04:35:06.966Z,24.63
2022-11-05T04:37:33.539Z,25.00
2022-11-05T04:40:00.037Z,20.90
2022-11-05T04:42:27.905Z,22.95
2022-11-05T04:44:54.357Z,23.05
2022-11-05T04:47:20.843Z,22.40
2022-11-05T04:49:47.325Z,23.73
2022-11-05T04:52:13.814Z,20.35
2022-11-05T04:54:40.273Z,24.45
2022-11-05T04:57:06.676Z,21.10
2022-11-05T04:59:33.146Z,22.93
2022-11-05T05:02:00.186Z,23.88
2022-11-05T05:04:26.878Z,22.60
2022-11-05T05:06:53.600Z,23.33
2022-11-05T05:09:20.108Z,22.13
2022-11-05T05:11:46.584Z,20.87
2022-11-05T05:14:13.012Z,23.50
2022-11-05T05:16:39.495Z,22.02
2022-11-05T05:19:06.143Z,21.17
2022-11-05T05:21:38.618Z,22.67
2022-11-05T05:24:18.492Z,20.73
2022-11-05T05:26:47.350Z,19.73
2022-11-05T05:29:14.320Z,19.45
2022-11-05T05:31:41.669Z,19.15
2022-11-05T05:34:11.028Z,21.88
2022-11-05T05:36:37.615Z,25.13
2022-11-05T05:39:08.649Z,26.35
2022-11-05T05:41:35.116Z,18.23
2022-11-05T05:44:01.591Z,18.80
2022-11-05T05:46:28.018Z,15.95
2022-11-05T05:48:54.481Z,23.57
2022-11-05T05:51:20.962Z,20.35
2022-11-05T05:53:47.416Z,23.70
2022-11-05T05:56:19.217Z,25.63
2022-11-05T05:58:46.218Z,26.58
2022-11-05T06:01:18.864Z,20.67
2022-11-05T06:03:47.356Z,23.00
2022-11-05T06:06:19.579Z,19.73
2022-11-05T06:08:46.771Z,21.55
2022-11-05T06:11:13.680Z,22.40
2022-11-05T06:13:40.178Z,21.20
2022-11-05T06:16:08.568Z,22.98
2022-11-05T06:18:35.762Z,19.85
2022-11-05T06:21:07.467Z,20.88
2022-11-05T06:23:35.446Z,18.42
2022-11-05T06:26:03.862Z,20.53
2022-11-05T06:28:30.745Z,20.63
2022-11-05T06:30:57.693Z,22.52
2022-11-05T06:33:24.514Z,24.80
2022-11-05T06:35:51.269Z,21.13
2022-11-05T06:38:17.906Z,24.40
2022-11-05T06:40:44.425Z,21.48
2022-11-05T06:43:11.381Z,23.77
2022-11-05T06:45:38.048Z,20.38
2022-11-05T06:48:04.833Z,23.13
2022-11-05T06:50:31.323Z,18.50
2022-11-05T06:53:03.654Z,22.40
2022-11-05T06:55:31.608Z,20.17
2022-11-05T06:57:58.157Z,21.92
2022-11-05T07:00:25.137Z,21.58
2022-11-05T07:02:51.547Z,19.27
2022-11-05T07:05:18.515Z,23.23
2022-11-05T07:07:45.891Z,25.60
2022-11-05T07:10:15.260Z,17.00
2022-11-05T07:12:42.964Z,20.00
2022-11-05T07:15:11.451Z,19.13
2022-11-05T07:17:39.197Z,20.10
2022-11-05T07:20:07.422Z,16.15
2022-11-05T07:22:35.398Z,16.58
2022-11-05T07:25:02.166Z,19.52
2022-11-05T07:27:28.871Z,19.13
2022-11-05T07:29:55.304Z,24.10
2022-11-05T07:32:21.723Z,22.17
2022-11-05T07:34:48.267Z,21.80
2022-11-05T07:37:16.608Z,21.38
2022-11-05T07:39:43.201Z,22.50
2022-11-05T07:42:13.636Z,24.92
2022-11-05T07:44:40.195Z,19.98
2022-11-05T07:47:06.639Z,19.25
2022-11-05T07:49:33.134Z,22.65
2022-11-05T07:51:59.663Z,18.97
2022-11-05T07:54:26.745Z,23.02
2022-11-05T07:56:53.221Z,23.70
2022-11-05T07:59:19.801Z,21.02
2022-11-05T08:01:46.559Z,19.00
2022-11-05T08:04:13.796Z,19.77
2022-11-05T08:06:40.678Z,17.50
2022-11-05T08:09:07.194Z,19.55
2022-11-05T08:11:35.130Z,19.27
2022-11-05T08:14:01.570Z,20.85
2022-11-05T08:16:28.100Z,20.13
2022-11-05T08:18:54.662Z,17.48
2022-11-05T08:21:21.324Z,18.83
2022-11-05T08:23:47.879Z,17.08
2022-11-05T08:26:14.430Z,17.27
2022-11-05T08:28:41.459Z,18.90
2022-11-05T08:31:07.889Z,14.70
2022-11-05T08:33:34.849Z,15.98
2022-11-05T08:36:04.439Z,13.43
2022-11-05T08:38:31.004Z,11.70
2022-11-05T08:40:58.262Z,17.23
2022-11-05T08:43:25.198Z,14.73
2022-11-05T08:45:51.884Z,14.90
2022-11-05T08:48:19.366Z,18.13
2022-11-05T08:50:48.357Z,16.67
2022-11-05T08:53:15.505Z,16.37
2022-11-05T08:55:43.827Z,15.98
2022-11-05T08:58:12.561Z,14.60
2022-11-05T09:00:39.821Z,17.70
2022-11-05T09:03:09.078Z,14.43
2022-11-05T09:05:39.010Z,13.07
2022-11-05T09:08:06.945Z,14.48
2022-11-05T09:10:33.575Z,12.88
2022-11-05T09:13:00.103Z,12.68
2022-11-05T09:15:27.697Z,11.63
2022-11-05T09:17:55.054Z,11.40
2022-11-05T09:20:22.069Z,9.77
2022-11-05T09:22:48.982Z,8.88
2022-11-05T09:25:15.913Z,9.95
2022-11-05T09:27:42.697Z,10.98
2022-11-05T09:30:10.499Z,9.57
2022-11-05T09:32:36.954Z,10.25
2022-11-05T09:35:04.065Z,8.00
2022-11-05T09:37:30.598Z,12.73
2022-11-05T09:39:57.545Z,11.85
2022-11-05T09:42:29.317Z,11.93
2022-11-05T09:45:05.238Z,11.73
2022-11-05T09:47:40.729Z,12.95
2022-11-05T09:50:13.769Z,12.50
2022-11-05T09:52:41.730Z,9.13
2022-11-05T09:55:19.932Z,8.73
2022-11-05T09:57:54.527Z,10.00
2022-11-05T10:00:21.141Z,9.27
2022-11-05T10:02:55.649Z,8.98
2022-11-05T10:05:24.803Z,8.68
2022-11-05T10:07:55.491Z,8.87
2022-11-05T10:10:40.927Z,9.02
2022-11-05T10:13:34.440Z,8.65
2022-11-05T10:16:07.343Z,9.75
2022-11-05T10:18:39.426Z,12.80
2022-11-05T10:21:07.162Z,9.73
2022-11-05T10:23:34.317Z,11.07
2022-11-05T10:26:05.626Z,10.30
2022-11-05T10:28:34.380Z,11.85
2022-11-05T10:31:08.101Z,11.02
2022-11-05T10:33:48.488Z,12.23
2022-11-05T10:36:24.123Z,11.60
2022-11-05T10:38:51.318Z,9.02
2022-11-05T10:41:24.368Z,12.85
2022-11-05T10:43:54.293Z,7.13
2022-11-05T10:46:38.110Z,8.03
2022-11-05T10:49:30.318Z,7.47
2022-11-05T10:51:59.769Z,7.82
2022-11-05T10:54:33.516Z,10.73
2022-11-05T10:57:00.012Z,12.18
2022-11-05T10:59:29.354Z,8.43
2022-11-05T11:02:03.232Z,12.07
2022-11-05T11:04:36.508Z,6.20
2022-11-05T11:07:04.748Z,12.50
2022-11-05T11:09:35.664Z,10.10
2022-11-05T11:12:16.920Z,10.83
2022-11-05T11:14:59.972Z,6.90
2022-11-05T11:17:32.361Z,11.30
2022-11-05T11:20:30.745Z,8.00
2022-11-05T11:23:04.517Z,7.90
2022-11-05T11:25:41.872Z,10.90
2022-11-05T11:28:19.178Z,11.55
2022-11-05T11:30:52.025Z,9.50
2022-11-05T11:33:23.988Z,7.45
2022-11-05T11:35:50.583Z,7.22
2022-11-05T11:38:17.442Z,8.80
2022-11-05T11:40:45.028Z,11.02
2022-11-05T11:43:25.546Z,7.28
2022-11-05T11:45:54.158Z,5.68
2022-11-05T11:48:30.838Z,8.13
2022-11-05T11:50:58.774Z,9.47
2022-11-05T11:53:35.835Z,10.13
2022-11-05T11:56:12.357Z,7.78
2022-11-05T11:58:40.556Z,8.27
2022-11-05T12:01:19.370Z,8.05
2022-11-05T12:04:33.968Z,9.57
2022-11-05T12:07:28.360Z,8.57
2022-11-05T12:10:11.108Z,6.28
2022-11-05T12:13:01.740Z,6.20
2022-11-05T12:15:37.232Z,4.82
2022-11-05T12:18:06.142Z,8.33
2022-11-05T12:21:06.370Z,9.77
2022-11-05T12:23:48.006Z,6.57
2022-11-05T12:26:32.354Z,5.18
2022-11-05T12:29:19.154Z,8.52
2022-11-05T12:32:13.708Z,9.13
2022-11-05T12:35:11.737Z,8.57
2022-11-05T12:37:54.645Z,7.32
2022-11-05T12:40:36.511Z,6.93
2022-11-05T12:43:19.551Z,7.32
2022-11-05T12:46:13.327Z,7.27
2022-11-05T12:49:05.520Z,7.57
2022-11-05T12:51:41.121Z,9.65
2022-11-05T12:54:37.118Z,7.40
2022-11-05T12:57:05.376Z,7.60
2022-11-05T12:59:37.312Z,7.67
2022-11-05T13:02:25.013Z,7.70
2022-11-05T13:05:00.987Z,8.15
2022-11-05T13:07:35.713Z,6.45
2022-11-05T13:10:10.333Z,6.53
2022-11-05T13:12:39.485Z,9.60
2022-11-05T13:15:26.616Z,9.85
2022-11-05T13:18:04.369Z,7.97
2022-11-05T13:20:38.365Z,7.60
2022-11-05T13:23:16.404Z,7.43
2022-11-05T13:25:50.518Z,10.27
2022-11-05T13:28:24.752Z,8.70
2022-11-05T13:30:54.867Z,8.38
2022-11-05T13:33:25.915Z,7.72
2022-11-05T13:36:23.451Z,9.38
2022-11-05T13:38:59.133Z,7.07
2022-11-05T13:41:38.297Z,6.88
2022-11-05T13:44:29.357Z,8.32
2022-11-05T13:47:11.782Z,18.08
2022-11-05T13:49:51.686Z,6.95
2022-11-05T13:52:41.171Z,8.10
2022-11-05T13:55:36.523Z,7.75
2022-11-05T13:58:30.890Z,8.02
2022-11-05T14:01:31.409Z,8.00
2022-11-05T14:03:58.270Z,10.05
2022-11-05T14:06:30.833Z,8.30
2022-11-05T14:09:01.873Z,8.98
2022-11-05T14:11:32.918Z,8.27
2022-11-05T14:14:06.886Z,5.85
2022-11-05T14:16:53.444Z,10.73
2022-11-05T14:19:19.844Z,9.17
2022-11-05T14:21:52.366Z,8.98
2022-11-05T14:24:21.670Z,7.82
2022-11-05T14:27:00.484Z,7.03
2022-11-05T14:29:41.694Z,8.30
2022-11-05T14:32:17.066Z,8.83
2022-11-05T14:35:21.250Z,7.95
2022-11-05T14:37:55.579Z,7.32
2022-11-05T14:40:21.986Z,7.60
2022-11-05T14:42:54.556Z,9.07
2022-11-05T14:45:30.039Z,9.20
2022-11-05T14:48:05.071Z,9.98
2022-11-05T14:50:42.499Z,7.90
2022-11-05T14:53:33.595Z,8.88
2022-11-05T14:56:04.362Z,8.23
2022-11-05T14:58:42.422Z,8.13
2022-11-05T15:01:15.630Z,9.05
2022-11-05T15:03:46.377Z,9.23
2022-11-05T15:06:31.450Z,10.82
2022-11-05T15:09:00.869Z,8.52
2022-11-05T15:11:27.316Z,9.33
2022-11-05T15:13:53.730Z,11.70
2022-11-05T15:16:30.602Z,10.48
2022-11-05T15:18:58.061Z,7.78
2022-11-05T15:21:25.456Z,8.82
2022-11-05T15:23:56.644Z,9.77
2022-11-05T15:26:39.145Z,14.32
2022-11-05T15:29:16.937Z,22.02
2022-11-05T15:31:45.298Z,15.10
2022-11-05T15:34:20.544Z,10.52
2022-11-05T15:36:53.802Z,12.30
2022-11-05T15:39:48.200Z,14.32
2022-11-05T15:42:17.676Z,32.50
2022-11-05T15:44:49.524Z,56.50
2022-11-05T15:47:24.559Z,62.90
2022-11-05T15:50:03.023Z,49.67
2022-11-05T15:52:36.345Z,30.95
2022-11-05T15:55:07.718Z,26.50
2022-11-05T15:57:39.292Z,25.00
2022-11-05T16:00:16.819Z,29.65
2022-11-05T16:02:49.363Z,39.37
2022-11-05T16:05:15.994Z,25.40
2022-11-05T16:07:47.193Z,18.67
2022-11-05T16:10:24.100Z,23.17
2022-11-05T16:12:50.699Z,26.92
2022-11-05T16:15:23.638Z,26.63
2022-11-05T16:17:53.997Z,22.85
2022-11-05T16:20:29.602Z,21.65
2022-11-05T16:23:03.689Z,17.95
2022-11-05T16:25:41.882Z,15.35
2022-11-05T16:28:28.920Z,16.00
2022-11-05T16:31:02.455Z,12.73
2022-11-05T16:33:39.234Z,13.63
2022-11-05T16:36:07.895Z,12.25
2022-11-05T16:38:34.618Z,13.93
2022-11-05T16:41:01.109Z,13.17
2022-11-05T16:43:27.706Z,14.55
2022-11-05T16:45:57.054Z,13.75
2022-11-05T16:48:24.249Z,14.65
2022-11-05T16:50:51.083Z,16.63
2022-11-05T16:53:17.812Z,15.87
2022-11-05T16:55:45.331Z,18.85
2022-11-05T16:58:23.396Z,21.73
2022-11-05T17:00:52.020Z,21.80
2022-11-05T17:03:18.586Z,14.60
2022-11-05T17:05:45.067Z,16.87
2022-11-05T17:08:11.942Z,21.25
2022-11-05T17:10:38.976Z,24.65
2022-11-05T17:13:05.570Z,21.92
2022-11-05T17:15:35.403Z,21.48
2022-11-05T17:18:03.811Z,17.47
2022-11-05T17:20:41.084Z,16.60
2022-11-05T17:23:10.390Z,16.20
2022-11-05T17:25:37.968Z,19.27
2022-11-05T17:28:05.109Z,17.10
2022-11-05T17:30:31.907Z,18.30
2022-11-05T17:32:58.685Z,18.70
2022-11-05T17:35:25.454Z,20.92
2022-11-05T17:37:52.019Z,16.40
2022-11-05T17:40:21.406Z,17.83
2022-11-05T17:42:48.422Z,17.43
2022-11-05T17:45:15.444Z,16.92
2022-11-05T17:47:42.292Z,16.55
2022-11-05T17:50:11.256Z,16.38
2022-11-05T17:52:38.021Z,14.43
2022-11-05T17:55:08.509Z,17.47
2022-11-05T17:57:34.915Z,16.30
2022-11-05T18:00:01.609Z,16.30
2022-11-05T18:02:29.455Z,19.42
2022-11-05T18:04:56.081Z,17.20
2022-11-05T18:07:22.604Z,18.53
2022-11-05T18:09:49.007Z,16.20
2022-11-05T18:12:15.486Z,17.52
2022-11-05T18:14:41.935Z,16.15
2022-11-05T18:17:08.569Z,17.67
2022-11-05T18:19:38.169Z,16.50
2022-11-05T18:22:04.623Z,15.70
2022-11-05T18:24:32.135Z,18.10
2022-11-05T18:26:58.953Z,20.45
2022-11-05T18:29:25.719Z,16.90
2022-11-05T18:31:52.249Z,20.07
2022-11-05T18:34:18.700Z,19.95
2022-11-05T18:36:45.845Z,21.05
2022-11-05T18:39:12.491Z,22.40
2022-11-05T18:41:39.465Z,18.77
2022-11-05T18:44:06.305Z,19.97
2022-11-05T18:46:57.259Z,22.02
2022-11-05T18:49:20.166Z,23.20
2022-11-05T18:51:46.638Z,25.30
2022-11-05T18:54:13.149Z,29.10
2022-11-05T18:56:45.135Z,31.27
2022-11-05T18:59:35.038Z,33.38
2022-11-05T19:01:59.985Z,41.20
2022-11-05T19:04:26.992Z,59.22
2022-11-05T19:06:53.585Z,76.45
2022-11-05T19:09:20.802Z,74.17
2022-11-05T19:11:47.474Z,83.43
2022-11-05T19:14:14.009Z,54.15
2022-11-05T19:16:40.498Z,54.40
2022-11-05T19:19:07.719Z,40.63
2022-11-05T19:21:34.312Z,39.27
2022-11-05T19:24:03.755Z,32.80
2022-11-05T19:26:30.708Z,27.65
2022-11-05T19:28:59.274Z,27.42
2022-11-05T19:31:26.570Z,29.35
2022-11-05T19:33:53.758Z,28.10
2022-11-05T19:36:22.227Z,26.77
2022-11-05T19:38:53.272Z,24.80
2022-11-05T19:41:21.401Z,31.10
2022-11-05T19:43:48.160Z,29.20
2022-11-05T19:46:18.538Z,30.63
2022-11-05T19:48:45.906Z,27.08
2022-11-05T19:51:21.499Z,31.15
2022-11-05T19:53:48.974Z,31.15
2022-11-05T19:56:20.893Z,33.00
2022-11-05T19:58:47.628Z,34.73
2022-11-05T20:01:15.338Z,34.20
2022-11-05T20:03:42.001Z,29.27
2022-11-05T20:06:14.221Z,32.25
2022-11-05T20:08:59.861Z,36.00
2022-11-05T20:11:29.068Z,32.40
2022-11-05T20:13:56.479Z,31.33
2022-11-05T20:16:26.223Z,32.70
2022-11-05T20:18:53.377Z,34.08
2022-11-05T20:21:20.131Z,36.15
2022-11-05T20:23:47.564Z,32.50
2022-11-05T20:26:14.893Z,31.27
2022-11-05T20:28:43.572Z,32.33
2022-11-05T20:31:15.245Z,30.48
2022-11-05T20:33:42.567Z,27.25
2022-11-05T20:36:13.004Z,28.77
2022-11-05T20:38:39.642Z,29.08
2022-11-05T20:41:09.246Z,31.70
2022-11-05T20:43:37.054Z,32.50
2022-11-05T20:46:04.220Z,33.95
2022-11-05T20:48:32.560Z,33.00
2022-11-05T20:50:59.261Z,29.80
2022-11-05T20:53:25.959Z,38.22
2022-11-05T20:55:52.389Z,54.97
2022-11-05T20:58:19.018Z,61.53
2022-11-05T21:00:54.211Z,53.10
2022-11-05T21:03:21.354Z,58.75
2022-11-05T21:05:50.163Z,60.90
2022-11-05T21:08:16.763Z,69.78
2022-11-05T21:10:50.044Z,70.35
2022-11-05T21:13:18.242Z,69.87
2022-11-05T21:15:50.211Z,71.93
2022-11-05T21:18:18.093Z,75.53
2022-11-05T21:20:46.806Z,74.07
2022-11-05T21:23:14.657Z,68.93
2022-11-05T21:25:42.715Z,71.30
2022-11-05T21:28:11.210Z,74.50
2022-11-05T21:30:41.604Z,72.53
2022-11-05T21:33:09.151Z,72.88
2022-11-05T21:35:40.939Z,71.05
2022-11-05T21:38:07.707Z,60.30
2022-11-05T21:40:34.429Z,60.78
2022-11-05T21:43:00.892Z,64.75
2022-11-05T21:45:27.714Z,60.15
2022-11-05T21:47:54.178Z,52.30
2022-11-05T21:50:40.681Z,49.83
2022-11-05T21:53:31.426Z,47.72
2022-11-05T21:56:16.800Z,39.30
2022-11-05T21:59:02.061Z,41.28
2022-11-05T22:01:29.094Z,42.63
2022-11-05T22:04:00.306Z,34.00
2022-11-05T22:06:31.589Z,37.20
2022-11-05T22:08:58.082Z,33.28
2022-11-05T22:11:24.511Z,30.67
2022-11-05T22:13:52.730Z,32.33
2022-11-05T22:16:19.179Z,28.97
2022-11-05T22:18:45.671Z,28.65
2022-11-05T22:21:17.928Z,29.48
2022-11-05T22:23:44.556Z,27.67
2022-11-05T22:26:10.984Z,25.75
2022-11-05T22:28:37.434Z,29.30
2022-11-05T22:31:03.846Z,28.17
2022-11-05T22:33:31.062Z,30.25
2022-11-05T22:35:57.687Z,28.83
2022-11-05T22:38:24.242Z,35.28
2022-11-05T22:40:50.718Z,38.57
2022-11-05T22:43:17.169Z,34.92
2022-11-05T22:45:43.761Z,35.60
2022-11-05T22:48:10.768Z,33.30
2022-11-05T22:50:38.067Z,36.15
2022-11-05T22:53:04.800Z,39.67
2022-11-05T22:55:31.343Z,35.42
2022-11-05T22:57:57.758Z,34.90
2022-11-05T23:00:35.867Z,34.75
2022-11-05T23:03:02.971Z,31.45
2022-11-05T23:05:29.947Z,29.73
2022-11-05T23:08:15.672Z,30.13
2022-11-05T23:11:00.737Z,33.28
2022-11-05T23:13:27.369Z,31.85
2022-11-05T23:16:12.467Z,31.35
2022-11-05T23:18:57.339Z,31.43
2022-11-05T23:21:44.103Z,30.30
2022-11-05T23:24:12.775Z,32.50
2022-11-05T23:26:51.923Z,28.25
2022-11-05T23:29:24.082Z,28.25
2022-11-05T23:32:09.877Z,28.90
2022-11-05T23:34:36.660Z,29.45
2022-11-05T23:37:22.334Z,34.10
2022-11-05T23:39:48.934Z,31.02
2022-11-05T23:42:34.021Z,30.02
2022-11-05T23:45:18.923Z,27.00
2022-11-05T23:48:04.394Z,28.80
2022-11-05T23:50:35.667Z,29.80
2022-11-05T23:53:06.678Z,29.08
2022-11-05T23:55:33.165Z,30.05
2022-11-05T23:57:59.585Z,24.77
